Observations at @or for Latest


KAST 231955Z AUTO 20021G30KT 4SM -RA BR SCT015 BKN060 OVC070 12/10 A2994 RMK
 AO2 PK WND 18033/1901 CIG 015 RWY 08 SLP139 P0009 T01170100=
KBKE 231953Z AUTO 29005KT 10SM OVC017 03/00 A3022 RMK AO2 SLP253 T00330000=
KBNO 231953Z AUTO 00000KT 10SM CLR 06/01 A3021 RMK AO2 SLP240 T00610011=
KCVO 231956Z AUTO 19014KT 10SM FEW033 SCT042 OVC065 13/11 A3005 RMK AO2
 RAB12E48 SLP178 P0001 T01330106=
KDLS 231953Z AUTO 00000KT 6SM BR OVC004 06/04 A3010 RMK AO2 RAB18E32 SLP193
 P0001 T00560044=
KEUG 231954Z 18014KT 10SM FEW039 OVC065 15/08 A3006 RMK AO2 SLP179 T01500083=
KHIO 231953Z 17010KT 10SM FEW048 SCT055 OVC075 12/09 A3001 RMK AO2 RAB1856E46
 SLP162 P0002 T01220094=
KLGD 231956Z AUTO 17019G23KT 10SM FEW090 06/01 A3018 RMK AO2 SLP234 T00610011=
KLKV 231953Z AUTO 15007KT 10SM FEW024 06/02 A3022 RMK AO2 SLP249 T00610022=
KLMT 231953Z 00000KT 10SM SCT040 02/01 A3020 RMK AO2 SLP237 T00170006=
KMEH 231956Z AUTO 00000KT 10SM BKN055 OVC075 04/02 A3012 RMK AO2 SLP218
 T00440017=
KMFR 231953Z 00000KT 2 1/2SM BR OVC005 07/05 A3017 RMK AO2 SLP220 T00670050=
KMMV 231953Z AUTO 14005KT 10SM OVC035 13/11 A3002 RMK AO2 RAE25 SLP165 P0003
 T01280106=
KONO 231953Z AUTO 00000KT 10SM SCT011 OVC070 07/03 A3028 RMK AO2 SLP268
 T00720028=
KONP 231955Z AUTO 19018G24KT 3SM DZ SCT006 BKN011 OVC016 12/11 A3005 RMK AO2
 P0005=
KOTH 231956Z 16006KT 10SM -RA FEW018 BKN048 OVC070 14/12 A3008 RMK AO2 RAE01B49
 SLP186 P0000 T01390122 $=
KPDT 231953Z 18007KT 10SM BKN065 OVC085 15/06 A3007 RMK AO2 SLP178 T01500056=
KPDX 231953Z 11013KT 6SM -RA BR OVC034 08/07 A3004 RMK AO2 SLP173 P0006
 T00830067=
KRBG 231953Z AUTO 17006KT 10SM FEW070 BKN110 16/07 A3009 RMK AO2 SLP189
 T01610067=
KRDM 231956Z 20011KT 10SM CLR 11/03 A3011 RMK AO2 SLP194 T01110028=
KREO 231952Z AUTO 00000KT 10/01 A3019 RMK AO1 SLP225 T01000006=
KSLE 231956Z 17011KT 9SM -RA OVC075 12/08 A3002 RMK AO2 SLP166 P0004 T01220083=
KSXT 231956Z AUTO 18011G18KT 1/4SM FG VV003 06/05 A3011 RMK AO2 RAB37E46 SLP201
 P0000 T00560050=
KTTD 231953Z 08009KT 9SM -RA OVC042 08/06 A3005 RMK AO2 SLP175 P0001 T00780056=
KUAO 231953Z 20005KT 7SM -RA BKN060 OVC075 12/10 A3004 RMK AO2 SLP172 P0007
 T01220100=